sensor_id;sensor_type;location;lat;lon;timestamp;P1;durP1;ratioP1;P2;durP2;ratioP2
11616;SDS011;5864;52.998;9.068;2022-09-30T00:00:32;3.90;;;3.47;;
11616;SDS011;5864;52.998;9.068;2022-09-30T00:03:00;3.70;;;3.40;;
11616;SDS011;5864;52.998;9.068;2022-09-30T00:05:27;4.00;;;3.67;;
11616;SDS011;5864;52.998;9.068;2022-09-30T00:07:55;3.57;;;3.27;;
11616;SDS011;5864;52.998;9.068;2022-09-30T00:10:22;4.37;;;3.50;;
11616;SDS011;5864;52.998;9.068;2022-09-30T00:12:50;6.23;;;3.33;;
11616;SDS011;5864;52.998;9.068;2022-09-30T00:15:19;3.93;;;3.53;;
11616;SDS011;5864;52.998;9.068;2022-09-30T00:17:46;3.73;;;3.43;;
11616;SDS011;5864;52.998;9.068;2022-09-30T00:20:14;3.87;;;3.40;;
11616;SDS011;5864;52.998;9.068;2022-09-30T00:22:43;4.60;;;3.90;;
11616;SDS011;5864;52.998;9.068;2022-09-30T00:25:10;4.13;;;3.37;;
11616;SDS011;5864;52.998;9.068;2022-09-30T00:27:38;3.80;;;3.50;;
11616;SDS011;5864;52.998;9.068;2022-09-30T00:30:05;3.50;;;3.20;;
11616;SDS011;5864;52.998;9.068;2022-09-30T00:32:35;5.00;;;3.43;;
11616;SDS011;5864;52.998;9.068;2022-09-30T00:35:03;3.50;;;3.20;;
11616;SDS011;5864;52.998;9.068;2022-09-30T00:37:31;4.33;;;3.30;;
11616;SDS011;5864;52.998;9.068;2022-09-30T00:39:58;3.90;;;3.50;;
11616;SDS011;5864;52.998;9.068;2022-09-30T00:42:26;3.83;;;3.40;;
11616;SDS011;5864;52.998;9.068;2022-09-30T00:44:54;3.90;;;3.60;;
11616;SDS011;5864;52.998;9.068;2022-09-30T00:47:29;4.23;;;3.83;;
11616;SDS011;5864;52.998;9.068;2022-09-30T00:50:04;5.90;;;4.10;;
11616;SDS011;5864;52.998;9.068;2022-09-30T00:52:39;3.50;;;3.20;;
11616;SDS011;5864;52.998;9.068;2022-09-30T00:55:09;3.70;;;3.40;;
11616;SDS011;5864;52.998;9.068;2022-09-30T00:57:46;4.00;;;3.60;;
11616;SDS011;5864;52.998;9.068;2022-09-30T01:00:14;4.07;;;3.67;;
11616;SDS011;5864;52.998;9.068;2022-09-30T01:02:41;4.10;;;3.57;;
11616;SDS011;5864;52.998;9.068;2022-09-30T01:05:12;4.73;;;3.63;;
11616;SDS011;5864;52.998;9.068;2022-09-30T01:07:40;3.80;;;3.50;;
11616;SDS011;5864;52.998;9.068;2022-09-30T01:10:08;4.10;;;3.70;;
11616;SDS011;5864;52.998;9.068;2022-09-30T01:12:35;3.63;;;3.33;;
11616;SDS011;5864;52.998;9.068;2022-09-30T01:15:03;4.33;;;3.93;;
11616;SDS011;5864;52.998;9.068;2022-09-30T01:17:34;4.70;;;3.43;;
11616;SDS011;5864;52.998;9.068;2022-09-30T01:23:11;3.90;;;3.60;;
11616;SDS011;5864;52.998;9.068;2022-09-30T01:26:03;4.10;;;3.70;;
11616;SDS011;5864;52.998;9.068;2022-09-30T01:28:59;4.57;;;3.63;;
11616;SDS011;5864;52.998;9.068;2022-09-30T01:31:54;4.00;;;3.67;;
11616;SDS011;5864;52.998;9.068;2022-09-30T01:34:32;4.73;;;3.50;;
11616;SDS011;5864;52.998;9.068;2022-09-30T01:37:08;3.90;;;3.60;;
11616;SDS011;5864;52.998;9.068;2022-09-30T01:39:49;3.23;;;2.93;;
11616;SDS011;5864;52.998;9.068;2022-09-30T01:42:24;4.53;;;3.93;;
11616;SDS011;5864;52.998;9.068;2022-09-30T01:45:03;4.07;;;3.70;;
11616;SDS011;5864;52.998;9.068;2022-09-30T01:47:39;4.97;;;4.10;;
11616;SDS011;5864;52.998;9.068;2022-09-30T01:50:12;4.20;;;3.63;;
11616;SDS011;5864;52.998;9.068;2022-09-30T01:52:45;3.80;;;3.40;;
11616;SDS011;5864;52.998;9.068;2022-09-30T01:55:20;4.07;;;3.70;;
11616;SDS011;5864;52.998;9.068;2022-09-30T01:57:53;4.20;;;3.80;;
11616;SDS011;5864;52.998;9.068;2022-09-30T02:00:24;4.83;;;4.33;;
11616;SDS011;5864;52.998;9.068;2022-09-30T02:02:54;4.30;;;3.90;;
11616;SDS011;5864;52.998;9.068;2022-09-30T02:05:26;4.33;;;3.80;;
11616;SDS011;5864;52.998;9.068;2022-09-30T02:08:02;4.50;;;4.00;;
11616;SDS011;5864;52.998;9.068;2022-09-30T02:10:34;4.60;;;4.13;;
11616;SDS011;5864;52.998;9.068;2022-09-30T02:13:10;5.57;;;4.40;;
11616;SDS011;5864;52.998;9.068;2022-09-30T02:15:47;5.83;;;4.63;;
11616;SDS011;5864;52.998;9.068;2022-09-30T02:18:23;5.10;;;4.60;;
11616;SDS011;5864;52.998;9.068;2022-09-30T02:20:56;5.60;;;4.77;;
11616;SDS011;5864;52.998;9.068;2022-09-30T02:23:30;7.77;;;5.13;;
11616;SDS011;5864;52.998;9.068;2022-09-30T02:26:00;5.37;;;4.83;;
11616;SDS011;5864;52.998;9.068;2022-09-30T02:28:31;5.27;;;4.33;;
11616;SDS011;5864;52.998;9.068;2022-09-30T02:31:02;5.13;;;4.30;;
11616;SDS011;5864;52.998;9.068;2022-09-30T02:33:34;5.00;;;4.60;;
11616;SDS011;5864;52.998;9.068;2022-09-30T02:36:07;4.80;;;4.30;;
11616;SDS011;5864;52.998;9.068;2022-09-30T02:38:38;5.37;;;4.47;;
11616;SDS011;5864;52.998;9.068;2022-09-30T02:41:10;5.40;;;4.90;;
11616;SDS011;5864;52.998;9.068;2022-09-30T02:43:41;5.30;;;4.80;;
11616;SDS011;5864;52.998;9.068;2022-09-30T02:46:09;5.27;;;4.57;;
11616;SDS011;5864;52.998;9.068;2022-09-30T02:48:46;6.27;;;5.50;;
11616;SDS011;5864;52.998;9.068;2022-09-30T02:51:21;5.47;;;4.97;;
11616;SDS011;5864;52.998;9.068;2022-09-30T02:53:59;5.37;;;4.87;;
11616;SDS011;5864;52.998;9.068;2022-09-30T02:56:33;5.60;;;5.00;;
11616;SDS011;5864;52.998;9.068;2022-09-30T02:59:11;4.93;;;4.43;;
11616;SDS011;5864;52.998;9.068;2022-09-30T03:01:39;5.67;;;4.80;;
11616;SDS011;5864;52.998;9.068;2022-09-30T03:04:09;4.70;;;4.27;;
11616;SDS011;5864;52.998;9.068;2022-09-30T03:06:39;5.63;;;4.93;;
11616;SDS011;5864;52.998;9.068;2022-09-30T03:09:07;6.03;;;5.20;;
11616;SDS011;5864;52.998;9.068;2022-09-30T03:11:35;5.30;;;4.77;;
11616;SDS011;5864;52.998;9.068;2022-09-30T03:14:07;5.40;;;4.83;;
11616;SDS011;5864;52.998;9.068;2022-09-30T03:16:52;5.90;;;5.30;;
11616;SDS011;5864;52.998;9.068;2022-09-30T03:19:48;5.57;;;5.00;;
11616;SDS011;5864;52.998;9.068;2022-09-30T03:22:31;5.80;;;4.93;;
11616;SDS011;5864;52.998;9.068;2022-09-30T03:25:12;5.00;;;4.50;;
11616;SDS011;5864;52.998;9.068;2022-09-30T03:27:59;6.27;;;5.67;;
11616;SDS011;5864;52.998;9.068;2022-09-30T03:30:33;5.67;;;5.17;;
11616;SDS011;5864;52.998;9.068;2022-09-30T03:33:11;5.60;;;5.00;;
11616;SDS011;5864;52.998;9.068;2022-09-30T03:35:46;5.30;;;4.80;;
11616;SDS011;5864;52.998;9.068;2022-09-30T03:38:24;5.50;;;5.00;;
11616;SDS011;5864;52.998;9.068;2022-09-30T03:41:02;5.67;;;5.07;;
11616;SDS011;5864;52.998;9.068;2022-09-30T03:43:34;5.37;;;4.87;;
11616;SDS011;5864;52.998;9.068;2022-09-30T03:46:05;6.43;;;5.10;;
11616;SDS011;5864;52.998;9.068;2022-09-30T03:48:41;5.90;;;5.10;;
11616;SDS011;5864;52.998;9.068;2022-09-30T03:51:11;6.20;;;5.60;;
11616;SDS011;5864;52.998;9.068;2022-09-30T03:53:40;5.50;;;5.00;;
11616;SDS011;5864;52.998;9.068;2022-09-30T03:56:08;5.93;;;5.30;;
11616;SDS011;5864;52.998;9.068;2022-09-30T03:58:36;6.40;;;5.40;;
11616;SDS011;5864;52.998;9.068;2022-09-30T04:01:07;6.80;;;6.07;;
11616;SDS011;5864;52.998;9.068;2022-09-30T04:03:43;6.10;;;5.50;;
11616;SDS011;5864;52.998;9.068;2022-09-30T04:06:13;6.33;;;5.73;;
11616;SDS011;5864;52.998;9.068;2022-09-30T04:08:40;6.83;;;6.13;;
11616;SDS011;5864;52.998;9.068;2022-09-30T04:11:08;7.73;;;6.93;;
11616;SDS011;5864;52.998;9.068;2022-09-30T04:13:36;7.97;;;7.17;;
11616;SDS011;5864;52.998;9.068;2022-09-30T04:16:03;7.50;;;6.47;;
11616;SDS011;5864;52.998;9.068;2022-09-30T04:18:33;7.73;;;6.63;;
11616;SDS011;5864;52.998;9.068;2022-09-30T04:21:03;7.90;;;7.10;;
11616;SDS011;5864;52.998;9.068;2022-09-30T04:23:34;8.00;;;7.20;;
11616;SDS011;5864;52.998;9.068;2022-09-30T04:26:02;7.87;;;7.07;;
11616;SDS011;5864;52.998;9.068;2022-09-30T04:28:31;8.83;;;7.93;;
11616;SDS011;5864;52.998;9.068;2022-09-30T04:30:59;7.80;;;6.97;;
11616;SDS011;5864;52.998;9.068;2022-09-30T04:33:27;7.47;;;6.77;;
11616;SDS011;5864;52.998;9.068;2022-09-30T04:35:55;7.57;;;6.87;;
11616;SDS011;5864;52.998;9.068;2022-09-30T04:38:23;8.30;;;7.50;;
11616;SDS011;5864;52.998;9.068;2022-09-30T04:40:53;8.03;;;6.93;;
11616;SDS011;5864;52.998;9.068;2022-09-30T04:43:21;9.67;;;8.57;;
11616;SDS011;5864;52.998;9.068;2022-09-30T04:45:50;14.57;;;9.10;;
11616;SDS011;5864;52.998;9.068;2022-09-30T04:48:19;9.57;;;7.80;;
11616;SDS011;5864;52.998;9.068;2022-09-30T04:50:47;8.40;;;7.60;;
11616;SDS011;5864;52.998;9.068;2022-09-30T04:53:16;9.97;;;8.63;;
11616;SDS011;5864;52.998;9.068;2022-09-30T04:55:46;9.27;;;8.37;;
11616;SDS011;5864;52.998;9.068;2022-09-30T04:58:18;10.73;;;8.13;;
11616;SDS011;5864;52.998;9.068;2022-09-30T05:00:45;9.20;;;7.97;;
11616;SDS011;5864;52.998;9.068;2022-09-30T05:03:13;8.87;;;7.90;;
11616;SDS011;5864;52.998;9.068;2022-09-30T05:05:42;8.60;;;7.73;;
11616;SDS011;5864;52.998;9.068;2022-09-30T05:08:10;9.30;;;7.97;;
11616;SDS011;5864;52.998;9.068;2022-09-30T05:10:38;9.37;;;8.37;;
11616;SDS011;5864;52.998;9.068;2022-09-30T05:13:05;8.80;;;7.90;;
11616;SDS011;5864;52.998;9.068;2022-09-30T05:15:34;9.07;;;7.63;;
11616;SDS011;5864;52.998;9.068;2022-09-30T05:18:02;9.00;;;8.13;;
11616;SDS011;5864;52.998;9.068;2022-09-30T05:20:30;8.90;;;8.00;;
11616;SDS011;5864;52.998;9.068;2022-09-30T05:22:58;8.40;;;7.60;;
11616;SDS011;5864;52.998;9.068;2022-09-30T05:25:26;9.70;;;7.27;;
11616;SDS011;5864;52.998;9.068;2022-09-30T05:27:53;10.17;;;7.80;;
11616;SDS011;5864;52.998;9.068;2022-09-30T05:30:21;11.17;;;8.77;;
11616;SDS011;5864;52.998;9.068;2022-09-30T05:32:49;12.77;;;9.13;;
11616;SDS011;5864;52.998;9.068;2022-09-30T05:35:17;9.50;;;8.07;;
11616;SDS011;5864;52.998;9.068;2022-09-30T05:37:45;10.87;;;9.27;;
11616;SDS011;5864;52.998;9.068;2022-09-30T05:40:15;12.73;;;8.93;;
11616;SDS011;5864;52.998;9.068;2022-09-30T05:42:44;10.73;;;8.73;;
11616;SDS011;5864;52.998;9.068;2022-09-30T05:45:12;11.23;;;9.73;;
11616;SDS011;5864;52.998;9.068;2022-09-30T05:47:40;11.47;;;10.27;;
11616;SDS011;5864;52.998;9.068;2022-09-30T05:50:09;11.90;;;9.73;;
11616;SDS011;5864;52.998;9.068;2022-09-30T05:52:36;10.30;;;9.10;;
11616;SDS011;5864;52.998;9.068;2022-09-30T05:55:04;11.57;;;10.30;;
11616;SDS011;5864;52.998;9.068;2022-09-30T05:57:32;12.13;;;10.87;;
11616;SDS011;5864;52.998;9.068;2022-09-30T06:00:00;11.27;;;9.53;;
11616;SDS011;5864;52.998;9.068;2022-09-30T06:02:27;12.50;;;11.23;;
11616;SDS011;5864;52.998;9.068;2022-09-30T06:04:55;10.93;;;9.83;;
11616;SDS011;5864;52.998;9.068;2022-09-30T06:07:23;12.97;;;11.03;;
11616;SDS011;5864;52.998;9.068;2022-09-30T06:09:51;10.60;;;9.53;;
11616;SDS011;5864;52.998;9.068;2022-09-30T06:12:18;10.53;;;9.03;;
11616;SDS011;5864;52.998;9.068;2022-09-30T06:14:46;9.13;;;8.23;;
11616;SDS011;5864;52.998;9.068;2022-09-30T06:17:13;9.73;;;7.67;;
11616;SDS011;5864;52.998;9.068;2022-09-30T06:19:43;8.63;;;7.43;;
11616;SDS011;5864;52.998;9.068;2022-09-30T06:22:11;9.23;;;8.10;;
11616;SDS011;5864;52.998;9.068;2022-09-30T06:24:40;7.53;;;6.90;;
11616;SDS011;5864;52.998;9.068;2022-09-30T06:27:07;7.73;;;6.50;;
11616;SDS011;5864;52.998;9.068;2022-09-30T06:29:35;7.67;;;6.87;;
11616;SDS011;5864;52.998;9.068;2022-09-30T06:32:03;8.97;;;8.17;;
11616;SDS011;5864;52.998;9.068;2022-09-30T06:34:32;8.23;;;7.53;;
11616;SDS011;5864;52.998;9.068;2022-09-30T06:36:59;8.03;;;7.30;;
11616;SDS011;5864;52.998;9.068;2022-09-30T06:39:27;8.03;;;7.23;;
11616;SDS011;5864;52.998;9.068;2022-09-30T06:41:56;7.70;;;7.00;;
11616;SDS011;5864;52.998;9.068;2022-09-30T06:44:23;8.20;;;7.50;;
11616;SDS011;5864;52.998;9.068;2022-09-30T06:46:51;9.70;;;7.70;;
11616;SDS011;5864;52.998;9.068;2022-09-30T06:49:19;7.67;;;6.97;;
11616;SDS011;5864;52.998;9.068;2022-09-30T06:51:46;7.80;;;7.10;;
11616;SDS011;5864;52.998;9.068;2022-09-30T06:54:15;6.60;;;6.00;;
11616;SDS011;5864;52.998;9.068;2022-09-30T06:56:43;8.63;;;7.40;;
11616;SDS011;5864;52.998;9.068;2022-09-30T06:59:14;8.40;;;7.60;;
11616;SDS011;5864;52.998;9.068;2022-09-30T07:01:42;7.30;;;6.60;;
11616;SDS011;5864;52.998;9.068;2022-09-30T07:04:10;7.37;;;6.67;;
11616;SDS011;5864;52.998;9.068;2022-09-30T07:06:37;8.23;;;6.90;;
11616;SDS011;5864;52.998;9.068;2022-09-30T07:09:06;7.47;;;6.77;;
11616;SDS011;5864;52.998;9.068;2022-09-30T07:11:35;7.70;;;7.10;;
11616;SDS011;5864;52.998;9.068;2022-09-30T07:14:03;7.43;;;6.73;;
11616;SDS011;5864;52.998;9.068;2022-09-30T07:16:32;7.73;;;7.10;;
11616;SDS011;5864;52.998;9.068;2022-09-30T07:19:00;7.47;;;6.77;;
11616;SDS011;5864;52.998;9.068;2022-09-30T07:21:28;7.57;;;6.87;;
11616;SDS011;5864;52.998;9.068;2022-09-30T07:23:56;9.10;;;7.80;;
11616;SDS011;5864;52.998;9.068;2022-09-30T07:26:25;8.37;;;7.30;;
11616;SDS011;5864;52.998;9.068;2022-09-30T07:28:53;8.13;;;7.27;;
11616;SDS011;5864;52.998;9.068;2022-09-30T07:31:21;8.60;;;7.67;;
11616;SDS011;5864;52.998;9.068;2022-09-30T07:33:51;9.43;;;7.77;;
11616;SDS011;5864;52.998;9.068;2022-09-30T07:36:20;8.13;;;7.33;;
11616;SDS011;5864;52.998;9.068;2022-09-30T07:38:54;7.67;;;6.97;;
11616;SDS011;5864;52.998;9.068;2022-09-30T07:41:23;8.07;;;7.37;;
11616;SDS011;5864;52.998;9.068;2022-09-30T07:43:54;9.20;;;7.53;;
11616;SDS011;5864;52.998;9.068;2022-09-30T07:46:24;7.90;;;7.10;;
11616;SDS011;5864;52.998;9.068;2022-09-30T07:48:57;8.10;;;7.30;;
11616;SDS011;5864;52.998;9.068;2022-09-30T07:51:29;7.87;;;7.17;;
11616;SDS011;5864;52.998;9.068;2022-09-30T07:54:00;7.63;;;6.83;;
11616;SDS011;5864;52.998;9.068;2022-09-30T07:56:30;7.57;;;6.87;;
11616;SDS011;5864;52.998;9.068;2022-09-30T07:58:59;7.90;;;7.20;;
11616;SDS011;5864;52.998;9.068;2022-09-30T08:01:27;6.07;;;5.57;;
11616;SDS011;5864;52.998;9.068;2022-09-30T08:03:58;6.47;;;5.97;;
11616;SDS011;5864;52.998;9.068;2022-09-30T08:06:29;7.67;;;6.90;;
11616;SDS011;5864;52.998;9.068;2022-09-30T08:08:57;6.27;;;5.77;;
11616;SDS011;5864;52.998;9.068;2022-09-30T08:11:25;7.17;;;6.47;;
11616;SDS011;5864;52.998;9.068;2022-09-30T08:13:53;6.60;;;5.93;;
11616;SDS011;5864;52.998;9.068;2022-09-30T08:16:22;6.83;;;6.27;;
11616;SDS011;5864;52.998;9.068;2022-09-30T08:18:52;7.30;;;6.60;;
11616;SDS011;5864;52.998;9.068;2022-09-30T08:21:22;9.27;;;7.10;;
11616;SDS011;5864;52.998;9.068;2022-09-30T08:23:49;6.83;;;6.23;;
11616;SDS011;5864;52.998;9.068;2022-09-30T08:26:17;7.43;;;6.77;;
11616;SDS011;5864;52.998;9.068;2022-09-30T08:28:45;7.43;;;6.70;;
11616;SDS011;5864;52.998;9.068;2022-09-30T08:31:13;8.67;;;7.87;;
11616;SDS011;5864;52.998;9.068;2022-09-30T08:33:42;9.97;;;9.00;;
11616;SDS011;5864;52.998;9.068;2022-09-30T08:36:10;8.50;;;7.70;;
11616;SDS011;5864;52.998;9.068;2022-09-30T08:38:40;9.03;;;8.23;;
11616;SDS011;5864;52.998;9.068;2022-09-30T08:41:13;9.57;;;8.77;;
11616;SDS011;5864;52.998;9.068;2022-09-30T08:43:53;9.20;;;8.30;;
11616;SDS011;5864;52.998;9.068;2022-09-30T08:46:34;8.77;;;7.87;;
11616;SDS011;5864;52.998;9.068;2022-09-30T08:49:15;9.20;;;8.40;;
11616;SDS011;5864;52.998;9.068;2022-09-30T08:51:54;8.47;;;7.77;;
11616;SDS011;5864;52.998;9.068;2022-09-30T08:54:28;7.90;;;6.97;;
11616;SDS011;5864;52.998;9.068;2022-09-30T08:56:58;9.40;;;8.50;;
11616;SDS011;5864;52.998;9.068;2022-09-30T08:59:28;7.70;;;7.00;;
11616;SDS011;5864;52.998;9.068;2022-09-30T09:02:00;8.23;;;7.43;;
11616;SDS011;5864;52.998;9.068;2022-09-30T09:04:36;8.80;;;8.00;;
11616;SDS011;5864;52.998;9.068;2022-09-30T09:07:04;8.30;;;7.50;;
11616;SDS011;5864;52.998;9.068;2022-09-30T09:09:50;8.73;;;7.90;;
11616;SDS011;5864;52.998;9.068;2022-09-30T09:12:27;9.90;;;8.90;;
11616;SDS011;5864;52.998;9.068;2022-09-30T09:18:04;11.13;;;8.93;;
11616;SDS011;5864;52.998;9.068;2022-09-30T09:20:53;8.37;;;7.63;;
11616;SDS011;5864;52.998;9.068;2022-09-30T09:23:22;9.57;;;8.50;;
11616;SDS011;5864;52.998;9.068;2022-09-30T09:25:52;10.97;;;9.87;;
11616;SDS011;5864;52.998;9.068;2022-09-30T09:28:24;9.13;;;8.13;;
11616;SDS011;5864;52.998;9.068;2022-09-30T09:31:01;9.93;;;8.93;;
11616;SDS011;5864;52.998;9.068;2022-09-30T09:33:30;9.23;;;8.27;;
11616;SDS011;5864;52.998;9.068;2022-09-30T09:36:04;8.40;;;7.60;;
11616;SDS011;5864;52.998;9.068;2022-09-30T09:38:44;7.87;;;6.93;;
11616;SDS011;5864;52.998;9.068;2022-09-30T09:41:30;8.87;;;8.00;;
11616;SDS011;5864;52.998;9.068;2022-09-30T09:44:06;9.40;;;8.57;;
11616;SDS011;5864;52.998;9.068;2022-09-30T09:46:43;9.53;;;8.63;;
11616;SDS011;5864;52.998;9.068;2022-09-30T09:49:25;9.10;;;8.17;;
11616;SDS011;5864;52.998;9.068;2022-09-30T09:55:05;8.97;;;8.20;;
11616;SDS011;5864;52.998;9.068;2022-09-30T09:57:35;10.13;;;9.13;;
11616;SDS011;5864;52.998;9.068;2022-09-30T10:00:05;9.47;;;8.13;;
11616;SDS011;5864;52.998;9.068;2022-09-30T10:02:58;7.40;;;6.70;;
11616;SDS011;5864;52.998;9.068;2022-09-30T10:05:28;7.60;;;6.83;;
11616;SDS011;5864;52.998;9.068;2022-09-30T10:08:08;9.53;;;8.17;;
11616;SDS011;5864;52.998;9.068;2022-09-30T10:10:42;9.27;;;7.83;;
11616;SDS011;5864;52.998;9.068;2022-09-30T10:13:15;8.20;;;7.10;;
11616;SDS011;5864;52.998;9.068;2022-09-30T10:15:44;10.13;;;9.00;;
11616;SDS011;5864;52.998;9.068;2022-09-30T10:18:15;9.10;;;8.30;;
11616;SDS011;5864;52.998;9.068;2022-09-30T10:20:49;8.37;;;7.07;;
11616;SDS011;5864;52.998;9.068;2022-09-30T10:23:24;9.80;;;8.80;;
11616;SDS011;5864;52.998;9.068;2022-09-30T10:25:54;9.17;;;8.20;;
11616;SDS011;5864;52.998;9.068;2022-09-30T10:28:30;9.43;;;8.20;;
11616;SDS011;5864;52.998;9.068;2022-09-30T10:31:01;9.27;;;8.43;;
11616;SDS011;5864;52.998;9.068;2022-09-30T10:33:35;9.80;;;8.80;;
11616;SDS011;5864;52.998;9.068;2022-09-30T10:36:10;8.77;;;7.93;;
11616;SDS011;5864;52.998;9.068;2022-09-30T10:38:45;9.17;;;8.20;;
11616;SDS011;5864;52.998;9.068;2022-09-30T10:41:21;10.17;;;8.90;;
11616;SDS011;5864;52.998;9.068;2022-09-30T10:43:54;9.73;;;8.73;;
11616;SDS011;5864;52.998;9.068;2022-09-30T10:46:24;9.97;;;8.97;;
11616;SDS011;5864;52.998;9.068;2022-09-30T10:48:54;10.97;;;9.87;;
11616;SDS011;5864;52.998;9.068;2022-09-30T10:51:28;10.43;;;9.43;;
11616;SDS011;5864;52.998;9.068;2022-09-30T10:54:00;9.20;;;7.80;;
11616;SDS011;5864;52.998;9.068;2022-09-30T10:56:37;10.20;;;8.77;;
11616;SDS011;5864;52.998;9.068;2022-09-30T10:59:24;8.17;;;7.33;;
11616;SDS011;5864;52.998;9.068;2022-09-30T11:01:59;10.93;;;9.77;;
11616;SDS011;5864;52.998;9.068;2022-09-30T11:04:39;11.63;;;10.23;;
11616;SDS011;5864;52.998;9.068;2022-09-30T11:07:13;11.93;;;10.03;;
11616;SDS011;5864;52.998;9.068;2022-09-30T11:09:49;10.67;;;9.67;;
11616;SDS011;5864;52.998;9.068;2022-09-30T11:12:24;12.87;;;10.27;;
11616;SDS011;5864;52.998;9.068;2022-09-30T11:14:59;10.87;;;9.80;;
11616;SDS011;5864;52.998;9.068;2022-09-30T11:17:33;9.63;;;8.20;;
11616;SDS011;5864;52.998;9.068;2022-09-30T11:20:13;9.90;;;8.80;;
11616;SDS011;5864;52.998;9.068;2022-09-30T11:22:46;11.60;;;8.70;;
11616;SDS011;5864;52.998;9.068;2022-09-30T11:25:19;10.40;;;8.83;;
11616;SDS011;5864;52.998;9.068;2022-09-30T11:27:54;8.87;;;7.93;;
11616;SDS011;5864;52.998;9.068;2022-09-30T11:30:32;10.00;;;8.17;;
11616;SDS011;5864;52.998;9.068;2022-09-30T11:33:15;9.73;;;7.60;;
11616;SDS011;5864;52.998;9.068;2022-09-30T11:35:53;9.77;;;7.77;;
11616;SDS011;5864;52.998;9.068;2022-09-30T11:38:36;9.67;;;6.33;;
11616;SDS011;5864;52.998;9.068;2022-09-30T11:41:14;7.50;;;6.70;;
11616;SDS011;5864;52.998;9.068;2022-09-30T11:43:48;7.93;;;6.83;;
11616;SDS011;5864;52.998;9.068;2022-09-30T11:46:29;9.30;;;7.53;;
11616;SDS011;5864;52.998;9.068;2022-09-30T11:49:11;10.03;;;7.83;;
11616;SDS011;5864;52.998;9.068;2022-09-30T11:51:56;7.30;;;6.17;;
11616;SDS011;5864;52.998;9.068;2022-09-30T11:54:36;7.30;;;6.13;;
11616;SDS011;5864;52.998;9.068;2022-09-30T11:57:16;8.73;;;6.80;;
11616;SDS011;5864;52.998;9.068;2022-09-30T11:59:50;9.67;;;6.80;;
11616;SDS011;5864;52.998;9.068;2022-09-30T12:02:28;7.50;;;6.80;;
11616;SDS011;5864;52.998;9.068;2022-09-30T12:04:58;12.20;;;7.70;;
11616;SDS011;5864;52.998;9.068;2022-09-30T12:07:35;8.93;;;7.67;;
11616;SDS011;5864;52.998;9.068;2022-09-30T12:10:07;8.53;;;7.47;;
11616;SDS011;5864;52.998;9.068;2022-09-30T12:12:46;11.60;;;7.53;;
11616;SDS011;5864;52.998;9.068;2022-09-30T12:15:17;7.93;;;7.13;;
11616;SDS011;5864;52.998;9.068;2022-09-30T12:17:51;7.77;;;6.93;;
11616;SDS011;5864;52.998;9.068;2022-09-30T12:20:26;9.50;;;7.80;;
11616;SDS011;5864;52.998;9.068;2022-09-30T12:23:05;8.73;;;7.43;;
11616;SDS011;5864;52.998;9.068;2022-09-30T12:25:44;9.20;;;8.13;;
11616;SDS011;5864;52.998;9.068;2022-09-30T12:28:16;8.53;;;7.13;;
11616;SDS011;5864;52.998;9.068;2022-09-30T12:31:13;8.07;;;7.03;;
11616;SDS011;5864;52.998;9.068;2022-09-30T12:34:06;9.53;;;7.10;;
11616;SDS011;5864;52.998;9.068;2022-09-30T12:36:44;9.43;;;7.60;;
11616;SDS011;5864;52.998;9.068;2022-09-30T12:42:30;8.70;;;5.57;;
11616;SDS011;5864;52.998;9.068;2022-09-30T12:48:32;8.70;;;7.30;;
11616;SDS011;5864;52.998;9.068;2022-09-30T12:51:05;9.97;;;6.83;;
11616;SDS011;5864;52.998;9.068;2022-09-30T12:53:34;7.00;;;6.30;;
11616;SDS011;5864;52.998;9.068;2022-09-30T12:56:04;8.00;;;7.17;;
11616;SDS011;5864;52.998;9.068;2022-09-30T12:58:34;11.10;;;8.40;;
11616;SDS011;5864;52.998;9.068;2022-09-30T13:01:05;8.63;;;7.73;;
11616;SDS011;5864;52.998;9.068;2022-09-30T13:03:45;10.33;;;8.23;;
11616;SDS011;5864;52.998;9.068;2022-09-30T13:06:17;13.60;;;7.67;;
11616;SDS011;5864;52.998;9.068;2022-09-30T13:08:48;7.80;;;7.00;;
11616;SDS011;5864;52.998;9.068;2022-09-30T13:11:34;8.93;;;8.00;;
11616;SDS011;5864;52.998;9.068;2022-09-30T13:17:20;11.07;;;8.10;;
11616;SDS011;5864;52.998;9.068;2022-09-30T13:19:52;8.23;;;6.70;;
11616;SDS011;5864;52.998;9.068;2022-09-30T13:22:42;8.30;;;6.50;;
11616;SDS011;5864;52.998;9.068;2022-09-30T13:25:10;7.43;;;5.70;;
11616;SDS011;5864;52.998;9.068;2022-09-30T13:27:40;8.23;;;6.30;;
11616;SDS011;5864;52.998;9.068;2022-09-30T13:30:30;8.53;;;6.27;;
11616;SDS011;5864;52.998;9.068;2022-09-30T13:33:05;6.47;;;5.87;;
11616;SDS011;5864;52.998;9.068;2022-09-30T13:35:51;6.43;;;5.83;;
11616;SDS011;5864;52.998;9.068;2022-09-30T13:38:32;7.73;;;6.90;;
11616;SDS011;5864;52.998;9.068;2022-09-30T13:41:03;8.23;;;6.90;;
11616;SDS011;5864;52.998;9.068;2022-09-30T13:43:41;8.57;;;7.10;;
11616;SDS011;5864;52.998;9.068;2022-09-30T13:46:21;7.90;;;5.83;;
11616;SDS011;5864;52.998;9.068;2022-09-30T13:48:55;7.70;;;5.70;;
11616;SDS011;5864;52.998;9.068;2022-09-30T13:51:27;7.87;;;6.03;;
11616;SDS011;5864;52.998;9.068;2022-09-30T13:53:59;7.00;;;6.30;;
11616;SDS011;5864;52.998;9.068;2022-09-30T13:56:33;6.77;;;6.07;;
11616;SDS011;5864;52.998;9.068;2022-09-30T13:59:05;8.87;;;6.40;;
11616;SDS011;5864;52.998;9.068;2022-09-30T14:02:00;6.60;;;5.97;;
11616;SDS011;5864;52.998;9.068;2022-09-30T14:04:52;7.87;;;5.67;;
11616;SDS011;5864;52.998;9.068;2022-09-30T14:07:47;5.70;;;4.70;;
11616;SDS011;5864;52.998;9.068;2022-09-30T14:10:33;5.77;;;4.83;;
11616;SDS011;5864;52.998;9.068;2022-09-30T14:13:14;6.50;;;5.27;;
11616;SDS011;5864;52.998;9.068;2022-09-30T14:16:00;6.47;;;5.23;;
11616;SDS011;5864;52.998;9.068;2022-09-30T14:18:49;4.80;;;4.40;;
11616;SDS011;5864;52.998;9.068;2022-09-30T14:21:34;8.63;;;5.77;;
11616;SDS011;5864;52.998;9.068;2022-09-30T14:24:09;8.43;;;5.53;;
11616;SDS011;5864;52.998;9.068;2022-09-30T14:26:43;6.73;;;5.43;;
11616;SDS011;5864;52.998;9.068;2022-09-30T14:29:21;6.73;;;5.30;;
11616;SDS011;5864;52.998;9.068;2022-09-30T14:31:53;5.67;;;5.07;;
11616;SDS011;5864;52.998;9.068;2022-09-30T14:34:21;6.73;;;5.33;;
11616;SDS011;5864;52.998;9.068;2022-09-30T14:36:50;7.93;;;5.00;;
11616;SDS011;5864;52.998;9.068;2022-09-30T14:39:19;6.03;;;5.47;;
11616;SDS011;5864;52.998;9.068;2022-09-30T14:41:54;5.93;;;5.33;;
11616;SDS011;5864;52.998;9.068;2022-09-30T14:44:26;7.00;;;5.33;;
11616;SDS011;5864;52.998;9.068;2022-09-30T14:46:58;6.43;;;4.90;;
11616;SDS011;5864;52.998;9.068;2022-09-30T14:49:27;6.37;;;4.67;;
11616;SDS011;5864;52.998;9.068;2022-09-30T14:51:59;8.20;;;6.10;;
11616;SDS011;5864;52.998;9.068;2022-09-30T14:54:28;7.00;;;5.87;;
11616;SDS011;5864;52.998;9.068;2022-09-30T14:56:58;7.17;;;6.07;;
11616;SDS011;5864;52.998;9.068;2022-09-30T14:59:29;6.60;;;5.33;;
11616;SDS011;5864;52.998;9.068;2022-09-30T15:01:59;6.03;;;4.97;;
11616;SDS011;5864;52.998;9.068;2022-09-30T15:04:30;5.90;;;5.00;;
11616;SDS011;5864;52.998;9.068;2022-09-30T15:07:00;7.67;;;5.37;;
11616;SDS011;5864;52.998;9.068;2022-09-30T15:09:29;5.70;;;5.07;;
11616;SDS011;5864;52.998;9.068;2022-09-30T15:12:06;6.17;;;5.43;;
11616;SDS011;5864;52.998;9.068;2022-09-30T15:14:44;4.80;;;4.40;;
11616;SDS011;5864;52.998;9.068;2022-09-30T15:17:16;7.47;;;5.80;;
11616;SDS011;5864;52.998;9.068;2022-09-30T15:19:44;9.03;;;5.70;;
11616;SDS011;5864;52.998;9.068;2022-09-30T15:22:12;7.30;;;5.73;;
11616;SDS011;5864;52.998;9.068;2022-09-30T15:24:40;6.40;;;5.43;;
11616;SDS011;5864;52.998;9.068;2022-09-30T15:27:12;7.53;;;5.80;;
11616;SDS011;5864;52.998;9.068;2022-09-30T15:29:54;6.80;;;6.20;;
11616;SDS011;5864;52.998;9.068;2022-09-30T15:32:22;5.83;;;5.33;;
11616;SDS011;5864;52.998;9.068;2022-09-30T15:34:51;7.53;;;5.60;;
11616;SDS011;5864;52.998;9.068;2022-09-30T15:37:23;5.67;;;5.03;;
11616;SDS011;5864;52.998;9.068;2022-09-30T15:39:57;6.77;;;5.80;;
11616;SDS011;5864;52.998;9.068;2022-09-30T15:42:46;7.43;;;6.63;;
11616;SDS011;5864;52.998;9.068;2022-09-30T15:45:26;6.70;;;6.10;;
11616;SDS011;5864;52.998;9.068;2022-09-30T15:47:56;6.97;;;5.60;;
11616;SDS011;5864;52.998;9.068;2022-09-30T15:50:40;8.17;;;5.50;;
11616;SDS011;5864;52.998;9.068;2022-09-30T15:53:15;7.17;;;5.70;;